sensor_id;sensor_type;location;lat;lon;timestamp;P1;durP1;ratioP1;P2;durP2;ratioP2
11255;SDS011;5685;52.384;13.420;2023-02-24T00:01:40;68.30;;;38.10;;
11255;SDS011;5685;52.384;13.420;2023-02-24T00:04:43;68.77;;;38.27;;
11255;SDS011;5685;52.384;13.420;2023-02-24T00:07:52;68.07;;;37.97;;
11255;SDS011;5685;52.384;13.420;2023-02-24T00:10:54;68.57;;;38.20;;
11255;SDS011;5685;52.384;13.420;2023-02-24T00:13:57;68.37;;;38.17;;
11255;SDS011;5685;52.384;13.420;2023-02-24T00:17:01;68.23;;;38.00;;
11255;SDS011;5685;52.384;13.420;2023-02-24T00:20:07;68.30;;;38.00;;
11255;SDS011;5685;52.384;13.420;2023-02-24T00:23:13;68.33;;;38.10;;
11255;SDS011;5685;52.384;13.420;2023-02-24T00:26:17;68.10;;;38.10;;
11255;SDS011;5685;52.384;13.420;2023-02-24T00:29:20;68.77;;;38.40;;
11255;SDS011;5685;52.384;13.420;2023-02-24T00:32:24;68.73;;;38.40;;
11255;SDS011;5685;52.384;13.420;2023-02-24T00:35:26;68.60;;;38.27;;
11255;SDS011;5685;52.384;13.420;2023-02-24T00:38:31;68.77;;;38.37;;
11255;SDS011;5685;52.384;13.420;2023-02-24T00:41:35;68.87;;;38.50;;
11255;SDS011;5685;52.384;13.420;2023-02-24T00:44:40;68.77;;;38.30;;
11255;SDS011;5685;52.384;13.420;2023-02-24T00:47:44;68.87;;;38.47;;
11255;SDS011;5685;52.384;13.420;2023-02-24T00:50:47;68.53;;;38.13;;
11255;SDS011;5685;52.384;13.420;2023-02-24T00:53:53;68.90;;;38.37;;
11255;SDS011;5685;52.384;13.420;2023-02-24T00:56:57;68.77;;;38.40;;
11255;SDS011;5685;52.384;13.420;2023-02-24T01:00:02;68.70;;;38.40;;
11255;SDS011;5685;52.384;13.420;2023-02-24T01:03:09;68.80;;;38.37;;
11255;SDS011;5685;52.384;13.420;2023-02-24T01:06:12;68.97;;;38.40;;
11255;SDS011;5685;52.384;13.420;2023-02-24T01:09:17;68.70;;;38.37;;
11255;SDS011;5685;52.384;13.420;2023-02-24T01:12:20;68.73;;;38.33;;
11255;SDS011;5685;52.384;13.420;2023-02-24T01:15:37;68.40;;;38.20;;
11255;SDS011;5685;52.384;13.420;2023-02-24T01:18:41;68.67;;;38.40;;
11255;SDS011;5685;52.384;13.420;2023-02-24T01:21:44;68.50;;;38.30;;
11255;SDS011;5685;52.384;13.420;2023-02-24T01:24:49;68.23;;;38.07;;
11255;SDS011;5685;52.384;13.420;2023-02-24T01:27:51;68.83;;;38.33;;
11255;SDS011;5685;52.384;13.420;2023-02-24T01:30:59;68.80;;;38.30;;
11255;SDS011;5685;52.384;13.420;2023-02-24T01:34:02;68.70;;;38.30;;
11255;SDS011;5685;52.384;13.420;2023-02-24T01:37:05;68.57;;;38.23;;
11255;SDS011;5685;52.384;13.420;2023-02-24T01:40:11;68.43;;;38.20;;
11255;SDS011;5685;52.384;13.420;2023-02-24T01:43:20;68.83;;;38.27;;
11255;SDS011;5685;52.384;13.420;2023-02-24T01:46:22;68.37;;;38.00;;
11255;SDS011;5685;52.384;13.420;2023-02-24T01:49:26;68.67;;;38.20;;
11255;SDS011;5685;52.384;13.420;2023-02-24T01:52:33;68.57;;;38.10;;
11255;SDS011;5685;52.384;13.420;2023-02-24T01:55:41;68.97;;;38.30;;
11255;SDS011;5685;52.384;13.420;2023-02-24T01:58:48;68.73;;;38.27;;
11255;SDS011;5685;52.384;13.420;2023-02-24T02:01:50;69.50;;;38.60;;
11255;SDS011;5685;52.384;13.420;2023-02-24T02:04:59;68.33;;;38.13;;
11255;SDS011;5685;52.384;13.420;2023-02-24T02:08:05;69.07;;;38.37;;
11255;SDS011;5685;52.384;13.420;2023-02-24T02:11:10;68.30;;;38.07;;
11255;SDS011;5685;52.384;13.420;2023-02-24T02:14:20;68.70;;;38.20;;
11255;SDS011;5685;52.384;13.420;2023-02-24T02:17:25;68.87;;;38.30;;
11255;SDS011;5685;52.384;13.420;2023-02-24T02:20:40;68.83;;;38.23;;
11255;SDS011;5685;52.384;13.420;2023-02-24T02:24:03;68.80;;;38.30;;
11255;SDS011;5685;52.384;13.420;2023-02-24T02:27:26;68.47;;;38.17;;
11255;SDS011;5685;52.384;13.420;2023-02-24T02:30:59;68.83;;;38.30;;
11255;SDS011;5685;52.384;13.420;2023-02-24T02:34:18;68.77;;;38.20;;
11255;SDS011;5685;52.384;13.420;2023-02-24T02:37:29;68.70;;;38.23;;
11255;SDS011;5685;52.384;13.420;2023-02-24T02:40:36;68.70;;;38.13;;
11255;SDS011;5685;52.384;13.420;2023-02-24T02:43:42;68.57;;;38.07;;
11255;SDS011;5685;52.384;13.420;2023-02-24T02:46:50;68.60;;;38.10;;
11255;SDS011;5685;52.384;13.420;2023-02-24T02:49:59;68.97;;;38.37;;
11255;SDS011;5685;52.384;13.420;2023-02-24T02:53:09;68.77;;;38.27;;
11255;SDS011;5685;52.384;13.420;2023-02-24T02:56:15;68.43;;;38.07;;
11255;SDS011;5685;52.384;13.420;2023-02-24T02:59:21;68.53;;;38.30;;
11255;SDS011;5685;52.384;13.420;2023-02-24T03:02:27;68.67;;;38.20;;
11255;SDS011;5685;52.384;13.420;2023-02-24T03:05:41;68.43;;;38.13;;
11255;SDS011;5685;52.384;13.420;2023-02-24T03:08:47;68.30;;;38.10;;
11255;SDS011;5685;52.384;13.420;2023-02-24T03:11:55;68.40;;;38.13;;
11255;SDS011;5685;52.384;13.420;2023-02-24T03:15:01;68.50;;;38.30;;
11255;SDS011;5685;52.384;13.420;2023-02-24T03:18:09;68.10;;;38.10;;
11255;SDS011;5685;52.384;13.420;2023-02-24T03:21:20;68.27;;;38.10;;
11255;SDS011;5685;52.384;13.420;2023-02-24T03:24:31;68.37;;;38.20;;
11255;SDS011;5685;52.384;13.420;2023-02-24T03:27:39;68.60;;;38.27;;
11255;SDS011;5685;52.384;13.420;2023-02-24T03:30:47;68.43;;;38.37;;
11255;SDS011;5685;52.384;13.420;2023-02-24T03:33:56;68.43;;;38.27;;
11255;SDS011;5685;52.384;13.420;2023-02-24T03:37:04;68.77;;;38.40;;
11255;SDS011;5685;52.384;13.420;2023-02-24T03:40:08;68.17;;;38.10;;
11255;SDS011;5685;52.384;13.420;2023-02-24T03:43:15;68.47;;;38.30;;
11255;SDS011;5685;52.384;13.420;2023-02-24T03:46:21;68.57;;;38.27;;
11255;SDS011;5685;52.384;13.420;2023-02-24T03:49:24;68.10;;;38.10;;
11255;SDS011;5685;52.384;13.420;2023-02-24T03:52:29;68.43;;;38.20;;
11255;SDS011;5685;52.384;13.420;2023-02-24T03:55:40;68.60;;;38.17;;
11255;SDS011;5685;52.384;13.420;2023-02-24T03:58:57;68.40;;;38.20;;
11255;SDS011;5685;52.384;13.420;2023-02-24T04:02:07;68.33;;;38.10;;
11255;SDS011;5685;52.384;13.420;2023-02-24T04:05:16;68.90;;;38.43;;
11255;SDS011;5685;52.384;13.420;2023-02-24T04:08:24;68.40;;;38.17;;
11255;SDS011;5685;52.384;13.420;2023-02-24T04:11:29;68.67;;;38.23;;
11255;SDS011;5685;52.384;13.420;2023-02-24T04:14:38;68.83;;;38.30;;
11255;SDS011;5685;52.384;13.420;2023-02-24T04:17:44;69.00;;;38.43;;
11255;SDS011;5685;52.384;13.420;2023-02-24T04:20:48;68.83;;;38.43;;
11255;SDS011;5685;52.384;13.420;2023-02-24T04:23:53;68.53;;;38.20;;
11255;SDS011;5685;52.384;13.420;2023-02-24T04:26:58;69.03;;;38.47;;
11255;SDS011;5685;52.384;13.420;2023-02-24T04:30:05;68.70;;;38.33;;
11255;SDS011;5685;52.384;13.420;2023-02-24T04:33:11;68.13;;;38.10;;
11255;SDS011;5685;52.384;13.420;2023-02-24T04:36:15;68.43;;;38.20;;
11255;SDS011;5685;52.384;13.420;2023-02-24T04:39:20;68.10;;;38.07;;
11255;SDS011;5685;52.384;13.420;2023-02-24T04:42:23;68.23;;;38.13;;
11255;SDS011;5685;52.384;13.420;2023-02-24T04:45:26;68.47;;;38.30;;
11255;SDS011;5685;52.384;13.420;2023-02-24T04:48:30;68.17;;;38.17;;
11255;SDS011;5685;52.384;13.420;2023-02-24T04:51:34;67.97;;;38.07;;
11255;SDS011;5685;52.384;13.420;2023-02-24T04:54:42;68.37;;;38.20;;
11255;SDS011;5685;52.384;13.420;2023-02-24T04:57:45;68.37;;;38.30;;
11255;SDS011;5685;52.384;13.420;2023-02-24T05:00:49;68.20;;;38.20;;
11255;SDS011;5685;52.384;13.420;2023-02-24T05:03:52;68.37;;;38.30;;
11255;SDS011;5685;52.384;13.420;2023-02-24T05:06:55;68.20;;;38.20;;
11255;SDS011;5685;52.384;13.420;2023-02-24T05:09:59;67.87;;;38.10;;
11255;SDS011;5685;52.384;13.420;2023-02-24T05:13:02;68.40;;;38.50;;
11255;SDS011;5685;52.384;13.420;2023-02-24T05:16:06;68.17;;;38.30;;
11255;SDS011;5685;52.384;13.420;2023-02-24T05:19:10;67.90;;;38.07;;
11255;SDS011;5685;52.384;13.420;2023-02-24T05:22:30;68.13;;;38.30;;
11255;SDS011;5685;52.384;13.420;2023-02-24T05:25:34;68.27;;;38.33;;
11255;SDS011;5685;52.384;13.420;2023-02-24T05:28:38;68.27;;;38.20;;
11255;SDS011;5685;52.384;13.420;2023-02-24T05:31:42;68.17;;;38.23;;
11255;SDS011;5685;52.384;13.420;2023-02-24T05:34:44;67.60;;;38.00;;
11255;SDS011;5685;52.384;13.420;2023-02-24T05:37:47;67.73;;;38.10;;
11255;SDS011;5685;52.384;13.420;2023-02-24T05:40:52;67.73;;;38.03;;
11255;SDS011;5685;52.384;13.420;2023-02-24T05:44:04;67.73;;;38.20;;
11255;SDS011;5685;52.384;13.420;2023-02-24T05:47:08;67.90;;;38.30;;
11255;SDS011;5685;52.384;13.420;2023-02-24T05:50:11;68.00;;;38.27;;
11255;SDS011;5685;52.384;13.420;2023-02-24T05:53:15;67.87;;;38.20;;
11255;SDS011;5685;52.384;13.420;2023-02-24T05:56:19;68.13;;;38.33;;
11255;SDS011;5685;52.384;13.420;2023-02-24T05:59:22;67.70;;;38.10;;
11255;SDS011;5685;52.384;13.420;2023-02-24T06:02:31;67.60;;;37.90;;
11255;SDS011;5685;52.384;13.420;2023-02-24T06:05:36;68.27;;;38.40;;
11255;SDS011;5685;52.384;13.420;2023-02-24T06:08:42;68.07;;;38.20;;
11255;SDS011;5685;52.384;13.420;2023-02-24T06:11:51;67.50;;;38.00;;
11255;SDS011;5685;52.384;13.420;2023-02-24T06:14:53;67.50;;;38.10;;
11255;SDS011;5685;52.384;13.420;2023-02-24T06:17:57;67.70;;;38.17;;
11255;SDS011;5685;52.384;13.420;2023-02-24T06:21:00;67.07;;;37.87;;
11255;SDS011;5685;52.384;13.420;2023-02-24T06:24:03;67.00;;;37.90;;
11255;SDS011;5685;52.384;13.420;2023-02-24T06:27:09;67.73;;;38.30;;
11255;SDS011;5685;52.384;13.420;2023-02-24T06:30:16;67.97;;;38.30;;
11255;SDS011;5685;52.384;13.420;2023-02-24T06:33:21;67.57;;;38.27;;
11255;SDS011;5685;52.384;13.420;2023-02-24T06:36:25;67.63;;;38.10;;
11255;SDS011;5685;52.384;13.420;2023-02-24T06:39:28;67.57;;;38.00;;
11255;SDS011;5685;52.384;13.420;2023-02-24T06:42:34;67.27;;;37.90;;
11255;SDS011;5685;52.384;13.420;2023-02-24T06:45:38;67.77;;;38.20;;
11255;SDS011;5685;52.384;13.420;2023-02-24T06:48:41;66.83;;;37.87;;
11255;SDS011;5685;52.384;13.420;2023-02-24T06:51:44;67.93;;;38.50;;
11255;SDS011;5685;52.384;13.420;2023-02-24T06:54:47;67.33;;;38.10;;
11255;SDS011;5685;52.384;13.420;2023-02-24T06:57:53;67.20;;;38.00;;
11255;SDS011;5685;52.384;13.420;2023-02-24T07:00:57;67.40;;;38.00;;
11255;SDS011;5685;52.384;13.420;2023-02-24T07:04:01;67.13;;;37.87;;
11255;SDS011;5685;52.384;13.420;2023-02-24T07:07:16;66.90;;;37.80;;
11255;SDS011;5685;52.384;13.420;2023-02-24T07:10:19;67.10;;;37.90;;
11255;SDS011;5685;52.384;13.420;2023-02-24T07:13:23;67.13;;;37.90;;
11255;SDS011;5685;52.384;13.420;2023-02-24T07:16:28;66.90;;;37.77;;
11255;SDS011;5685;52.384;13.420;2023-02-24T07:19:33;67.03;;;37.80;;
11255;SDS011;5685;52.384;13.420;2023-02-24T07:22:36;67.40;;;38.00;;
11255;SDS011;5685;52.384;13.420;2023-02-24T07:25:39;67.37;;;38.00;;
11255;SDS011;5685;52.384;13.420;2023-02-24T07:28:44;67.50;;;38.10;;
11255;SDS011;5685;52.384;13.420;2023-02-24T07:31:48;67.23;;;37.97;;
11255;SDS011;5685;52.384;13.420;2023-02-24T07:34:53;67.27;;;37.80;;
11255;SDS011;5685;52.384;13.420;2023-02-24T07:37:56;67.13;;;37.87;;
11255;SDS011;5685;52.384;13.420;2023-02-24T07:41:01;67.13;;;37.87;;
11255;SDS011;5685;52.384;13.420;2023-02-24T07:44:07;67.50;;;38.03;;
11255;SDS011;5685;52.384;13.420;2023-02-24T07:47:10;67.17;;;37.90;;
11255;SDS011;5685;52.384;13.420;2023-02-24T07:50:14;67.30;;;38.10;;
11255;SDS011;5685;52.384;13.420;2023-02-24T07:53:17;67.77;;;38.27;;
11255;SDS011;5685;52.384;13.420;2023-02-24T07:56:20;66.87;;;37.70;;
11255;SDS011;5685;52.384;13.420;2023-02-24T07:59:28;67.03;;;37.90;;
11255;SDS011;5685;52.384;13.420;2023-02-24T08:02:31;67.17;;;38.00;;
11255;SDS011;5685;52.384;13.420;2023-02-24T08:05:34;67.27;;;37.90;;
11255;SDS011;5685;52.384;13.420;2023-02-24T08:08:37;67.17;;;37.90;;
11255;SDS011;5685;52.384;13.420;2023-02-24T08:11:56;67.27;;;37.97;;
11255;SDS011;5685;52.384;13.420;2023-02-24T08:15:01;66.97;;;37.80;;
11255;SDS011;5685;52.384;13.420;2023-02-24T08:18:16;66.97;;;37.80;;
11255;SDS011;5685;52.384;13.420;2023-02-24T08:21:19;67.00;;;37.80;;
11255;SDS011;5685;52.384;13.420;2023-02-24T08:24:22;66.83;;;37.70;;
11255;SDS011;5685;52.384;13.420;2023-02-24T08:27:29;66.57;;;37.60;;
11255;SDS011;5685;52.384;13.420;2023-02-24T08:30:34;66.70;;;37.70;;
11255;SDS011;5685;52.384;13.420;2023-02-24T08:33:38;66.50;;;37.63;;
11255;SDS011;5685;52.384;13.420;2023-02-24T08:36:41;66.80;;;37.90;;
11255;SDS011;5685;52.384;13.420;2023-02-24T08:39:47;66.37;;;37.70;;
11255;SDS011;5685;52.384;13.420;2023-02-24T08:42:53;66.53;;;37.77;;
11255;SDS011;5685;52.384;13.420;2023-02-24T08:46:00;66.73;;;38.00;;
11255;SDS011;5685;52.384;13.420;2023-02-24T08:49:05;65.80;;;37.47;;
11255;SDS011;5685;52.384;13.420;2023-02-24T08:52:09;66.07;;;37.67;;
11255;SDS011;5685;52.384;13.420;2023-02-24T08:55:13;66.37;;;37.80;;
11255;SDS011;5685;52.384;13.420;2023-02-24T08:58:22;66.17;;;37.70;;
11255;SDS011;5685;52.384;13.420;2023-02-24T09:01:29;66.13;;;37.67;;
11255;SDS011;5685;52.384;13.420;2023-02-24T09:04:33;65.97;;;37.60;;
11255;SDS011;5685;52.384;13.420;2023-02-24T09:07:37;65.93;;;37.63;;
11255;SDS011;5685;52.384;13.420;2023-02-24T09:10:41;65.80;;;37.53;;
11255;SDS011;5685;52.384;13.420;2023-02-24T09:13:45;65.87;;;37.60;;
11255;SDS011;5685;52.384;13.420;2023-02-24T09:16:58;65.77;;;37.50;;
11255;SDS011;5685;52.384;13.420;2023-02-24T09:20:05;66.00;;;37.70;;
11255;SDS011;5685;52.384;13.420;2023-02-24T09:23:27;66.17;;;37.70;;
11255;SDS011;5685;52.384;13.420;2023-02-24T09:26:45;66.07;;;37.60;;
11255;SDS011;5685;52.384;13.420;2023-02-24T09:29:47;66.03;;;37.60;;
11255;SDS011;5685;52.384;13.420;2023-02-24T09:32:52;66.13;;;37.80;;
11255;SDS011;5685;52.384;13.420;2023-02-24T09:36:00;66.27;;;37.77;;
11255;SDS011;5685;52.384;13.420;2023-02-24T09:39:10;65.90;;;37.50;;
11255;SDS011;5685;52.384;13.420;2023-02-24T09:42:14;65.93;;;37.60;;
11255;SDS011;5685;52.384;13.420;2023-02-24T09:45:31;66.00;;;37.67;;
11255;SDS011;5685;52.384;13.420;2023-02-24T09:48:38;65.60;;;37.57;;
11255;SDS011;5685;52.384;13.420;2023-02-24T09:51:45;66.13;;;37.70;;
11255;SDS011;5685;52.384;13.420;2023-02-24T09:54:59;66.60;;;37.87;;
11255;SDS011;5685;52.384;13.420;2023-02-24T09:58:25;66.77;;;38.00;;
11255;SDS011;5685;52.384;13.420;2023-02-24T10:01:33;66.53;;;37.90;;
11255;SDS011;5685;52.384;13.420;2023-02-24T10:04:50;65.90;;;37.57;;
11255;SDS011;5685;52.384;13.420;2023-02-24T10:07:55;66.10;;;37.50;;
11255;SDS011;5685;52.384;13.420;2023-02-24T10:10:59;66.50;;;37.80;;
11255;SDS011;5685;52.384;13.420;2023-02-24T10:14:08;66.70;;;37.80;;
11255;SDS011;5685;52.384;13.420;2023-02-24T10:17:19;66.23;;;37.60;;
11255;SDS011;5685;52.384;13.420;2023-02-24T10:20:31;66.47;;;37.70;;
11255;SDS011;5685;52.384;13.420;2023-02-24T10:23:43;66.43;;;37.70;;
11255;SDS011;5685;52.384;13.420;2023-02-24T10:27:00;66.40;;;37.60;;
11255;SDS011;5685;52.384;13.420;2023-02-24T10:30:08;66.63;;;37.77;;
11255;SDS011;5685;52.384;13.420;2023-02-24T10:33:19;66.67;;;37.80;;
11255;SDS011;5685;52.384;13.420;2023-02-24T10:36:28;66.70;;;37.77;;
11255;SDS011;5685;52.384;13.420;2023-02-24T10:39:35;66.57;;;37.67;;
11255;SDS011;5685;52.384;13.420;2023-02-24T10:42:42;66.40;;;37.60;;
11255;SDS011;5685;52.384;13.420;2023-02-24T10:45:47;66.67;;;37.60;;
11255;SDS011;5685;52.384;13.420;2023-02-24T10:48:56;66.27;;;37.50;;
11255;SDS011;5685;52.384;13.420;2023-02-24T10:52:02;66.50;;;37.60;;
11255;SDS011;5685;52.384;13.420;2023-02-24T10:55:12;66.10;;;37.43;;
11255;SDS011;5685;52.384;13.420;2023-02-24T10:58:29;66.33;;;37.50;;
11255;SDS011;5685;52.384;13.420;2023-02-24T11:01:43;66.67;;;37.70;;
11255;SDS011;5685;52.384;13.420;2023-02-24T11:04:54;66.67;;;37.73;;
11255;SDS011;5685;52.384;13.420;2023-02-24T11:08:27;66.20;;;37.50;;
11255;SDS011;5685;52.384;13.420;2023-02-24T11:11:38;66.37;;;37.57;;
11255;SDS011;5685;52.384;13.420;2023-02-24T11:14:56;66.47;;;37.50;;
11255;SDS011;5685;52.384;13.420;2023-02-24T11:18:18;66.80;;;37.87;;
11255;SDS011;5685;52.384;13.420;2023-02-24T11:21:22;66.57;;;37.50;;
11255;SDS011;5685;52.384;13.420;2023-02-24T11:24:27;66.67;;;37.63;;
11255;SDS011;5685;52.384;13.420;2023-02-24T11:27:30;66.60;;;37.53;;
11255;SDS011;5685;52.384;13.420;2023-02-24T11:30:34;66.80;;;37.90;;
11255;SDS011;5685;52.384;13.420;2023-02-24T11:33:44;66.13;;;37.30;;
11255;SDS011;5685;52.384;13.420;2023-02-24T11:36:52;66.97;;;38.20;;
11255;SDS011;5685;52.384;13.420;2023-02-24T11:40:04;66.47;;;37.50;;
11255;SDS011;5685;52.384;13.420;2023-02-24T11:43:15;66.87;;;37.90;;
11255;SDS011;5685;52.384;13.420;2023-02-24T11:46:20;66.80;;;37.80;;
11255;SDS011;5685;52.384;13.420;2023-02-24T11:49:27;66.57;;;37.50;;
11255;SDS011;5685;52.384;13.420;2023-02-24T11:52:32;66.83;;;37.67;;
11255;SDS011;5685;52.384;13.420;2023-02-24T11:55:41;66.27;;;37.30;;
11255;SDS011;5685;52.384;13.420;2023-02-24T11:58:47;66.57;;;37.40;;
11255;SDS011;5685;52.384;13.420;2023-02-24T12:01:54;66.90;;;37.70;;
11255;SDS011;5685;52.384;13.420;2023-02-24T12:05:02;67.20;;;37.80;;
11255;SDS011;5685;52.384;13.420;2023-02-24T12:08:11;66.83;;;37.67;;
11255;SDS011;5685;52.384;13.420;2023-02-24T12:11:21;66.73;;;37.53;;
11255;SDS011;5685;52.384;13.420;2023-02-24T12:14:32;66.93;;;37.70;;
11255;SDS011;5685;52.384;13.420;2023-02-24T12:17:40;66.80;;;37.50;;
11255;SDS011;5685;52.384;13.420;2023-02-24T12:20:49;67.47;;;37.83;;
11255;SDS011;5685;52.384;13.420;2023-02-24T12:23:55;67.17;;;37.70;;
11255;SDS011;5685;52.384;13.420;2023-02-24T12:27:02;66.93;;;37.70;;
11255;SDS011;5685;52.384;13.420;2023-02-24T12:33:51;67.10;;;37.70;;
11255;SDS011;5685;52.384;13.420;2023-02-24T12:37:04;66.97;;;37.70;;
11255;SDS011;5685;52.384;13.420;2023-02-24T12:40:22;66.87;;;37.60;;
11255;SDS011;5685;52.384;13.420;2023-02-24T12:43:33;66.33;;;37.30;;
11255;SDS011;5685;52.384;13.420;2023-02-24T12:46:39;67.20;;;37.60;;
11255;SDS011;5685;52.384;13.420;2023-02-24T12:53:13;66.97;;;37.50;;
11255;SDS011;5685;52.384;13.420;2023-02-24T12:56:20;66.97;;;37.70;;
11255;SDS011;5685;52.384;13.420;2023-02-24T12:59:27;66.83;;;37.57;;
11255;SDS011;5685;52.384;13.420;2023-02-24T13:02:34;67.03;;;37.70;;
11255;SDS011;5685;52.384;13.420;2023-02-24T13:05:44;67.17;;;37.60;;
11255;SDS011;5685;52.384;13.420;2023-02-24T13:08:53;66.93;;;37.53;;
11255;SDS011;5685;52.384;13.420;2023-02-24T13:12:02;66.80;;;37.40;;
11255;SDS011;5685;52.384;13.420;2023-02-24T13:15:15;67.27;;;37.60;;
11255;SDS011;5685;52.384;13.420;2023-02-24T13:18:24;67.50;;;37.60;;
11255;SDS011;5685;52.384;13.420;2023-02-24T13:21:29;67.07;;;37.43;;
11255;SDS011;5685;52.384;13.420;2023-02-24T13:24:32;67.67;;;37.80;;
11255;SDS011;5685;52.384;13.420;2023-02-24T13:27:35;67.77;;;37.80;;
11255;SDS011;5685;52.384;13.420;2023-02-24T13:30:41;67.30;;;37.50;;
11255;SDS011;5685;52.384;13.420;2023-02-24T13:33:45;67.67;;;37.80;;
11255;SDS011;5685;52.384;13.420;2023-02-24T13:36:48;67.53;;;37.70;;
11255;SDS011;5685;52.384;13.420;2023-02-24T13:39:51;67.47;;;37.53;;
11255;SDS011;5685;52.384;13.420;2023-02-24T13:42:55;67.50;;;37.57;;
11255;SDS011;5685;52.384;13.420;2023-02-24T13:46:01;67.90;;;38.20;;
11255;SDS011;5685;52.384;13.420;2023-02-24T13:49:18;67.43;;;37.70;;
11255;SDS011;5685;52.384;13.420;2023-02-24T13:52:27;67.53;;;37.90;;
11255;SDS011;5685;52.384;13.420;2023-02-24T13:55:44;67.53;;;37.67;;
11255;SDS011;5685;52.384;13.420;2023-02-24T13:58:55;67.50;;;37.70;;
11255;SDS011;5685;52.384;13.420;2023-02-24T14:02:10;66.87;;;37.53;;
11255;SDS011;5685;52.384;13.420;2023-02-24T14:05:16;67.03;;;37.50;;
11255;SDS011;5685;52.384;13.420;2023-02-24T14:08:22;67.07;;;37.60;;
11255;SDS011;5685;52.384;13.420;2023-02-24T14:11:28;67.30;;;37.70;;
11255;SDS011;5685;52.384;13.420;2023-02-24T14:14:31;67.30;;;37.60;;
11255;SDS011;5685;52.384;13.420;2023-02-24T14:17:36;67.13;;;37.60;;
11255;SDS011;5685;52.384;13.420;2023-02-24T14:20:38;67.17;;;37.67;;
11255;SDS011;5685;52.384;13.420;2023-02-24T14:23:41;66.97;;;37.40;;
11255;SDS011;5685;52.384;13.420;2023-02-24T14:26:45;67.17;;;37.60;;
11255;SDS011;5685;52.384;13.420;2023-02-24T14:29:50;66.67;;;37.33;;
11255;SDS011;5685;52.384;13.420;2023-02-24T14:32:54;67.40;;;37.73;;
11255;SDS011;5685;52.384;13.420;2023-02-24T14:35:57;67.03;;;37.50;;
11255;SDS011;5685;52.384;13.420;2023-02-24T14:39:03;67.27;;;37.60;;
11255;SDS011;5685;52.384;13.420;2023-02-24T14:42:10;67.17;;;37.63;;
11255;SDS011;5685;52.384;13.420;2023-02-24T14:45:15;67.53;;;37.80;;
11255;SDS011;5685;52.384;13.420;2023-02-24T14:48:21;67.23;;;37.50;;
11255;SDS011;5685;52.384;13.420;2023-02-24T14:51:26;67.27;;;37.50;;
11255;SDS011;5685;52.384;13.420;2023-02-24T14:54:37;66.97;;;37.50;;
11255;SDS011;5685;52.384;13.420;2023-02-24T14:57:46;66.90;;;37.33;;
11255;SDS011;5685;52.384;13.420;2023-02-24T15:00:54;67.07;;;37.50;;
11255;SDS011;5685;52.384;13.420;2023-02-24T15:04:08;67.27;;;37.60;;
11255;SDS011;5685;52.384;13.420;2023-02-24T15:07:14;67.60;;;37.80;;
11255;SDS011;5685;52.384;13.420;2023-02-24T15:10:19;66.87;;;37.30;;
11255;SDS011;5685;52.384;13.420;2023-02-24T15:13:26;67.03;;;37.40;;
11255;SDS011;5685;52.384;13.420;2023-02-24T15:16:31;66.60;;;37.23;;
11255;SDS011;5685;52.384;13.420;2023-02-24T15:19:39;67.50;;;37.73;;
11255;SDS011;5685;52.384;13.420;2023-02-24T15:22:47;66.93;;;37.40;;
11255;SDS011;5685;52.384;13.420;2023-02-24T15:25:50;66.97;;;37.47;;
11255;SDS011;5685;52.384;13.420;2023-02-24T15:28:56;66.80;;;37.50;;
11255;SDS011;5685;52.384;13.420;2023-02-24T15:32:00;66.87;;;37.40;;
11255;SDS011;5685;52.384;13.420;2023-02-24T15:35:19;67.23;;;37.70;;
11255;SDS011;5685;52.384;13.420;2023-02-24T15:38:24;67.20;;;37.47;;
11255;SDS011;5685;52.384;13.420;2023-02-24T15:41:39;67.27;;;37.50;;
11255;SDS011;5685;52.384;13.420;2023-02-24T15:44:49;67.00;;;37.30;;
11255;SDS011;5685;52.384;13.420;2023-02-24T15:47:53;67.17;;;37.40;;
11255;SDS011;5685;52.384;13.420;2023-02-24T15:50:58;67.60;;;37.60;;
11255;SDS011;5685;52.384;13.420;2023-02-24T15:54:06;67.20;;;37.53;;
11255;SDS011;5685;52.384;13.420;2023-02-24T15:57:11;67.43;;;37.60;;
11255;SDS011;5685;52.384;13.420;2023-02-24T16:00:17;67.27;;;37.50;;
11255;SDS011;5685;52.384;13.420;2023-02-24T16:03:22;67.23;;;37.60;;
11255;SDS011;5685;52.384;13.420;2023-02-24T16:06:26;67.30;;;37.60;;
11255;SDS011;5685;52.384;13.420;2023-02-24T16:09:30;67.53;;;37.60;;
11255;SDS011;5685;52.384;13.420;2023-02-24T16:12:44;67.30;;;37.53;;
11255;SDS011;5685;52.384;13.420;2023-02-24T16:15:48;67.13;;;37.40;;
11255;SDS011;5685;52.384;13.420;2023-02-24T16:18:52;67.50;;;37.40;;
11255;SDS011;5685;52.384;13.420;2023-02-24T16:21:57;67.67;;;37.70;;
11255;SDS011;5685;52.384;13.420;2023-02-24T16:25:00;67.47;;;37.43;;
11255;SDS011;5685;52.384;13.420;2023-02-24T16:28:02;67.97;;;37.77;;
11255;SDS011;5685;52.384;13.420;2023-02-24T16:31:05;67.83;;;37.80;;
11255;SDS011;5685;52.384;13.420;2023-02-24T16:34:08;67.60;;;37.50;;
11255;SDS011;5685;52.384;13.420;2023-02-24T16:37:17;67.23;;;37.50;;
11255;SDS011;5685;52.384;13.420;2023-02-24T16:40:21;67.80;;;37.63;;
11255;SDS011;5685;52.384;13.420;2023-02-24T16:43:26;67.63;;;37.60;;
11255;SDS011;5685;52.384;13.420;2023-02-24T16:46:31;67.77;;;37.80;;
11255;SDS011;5685;52.384;13.420;2023-02-24T16:49:39;67.83;;;37.70;;
11255;SDS011;5685;52.384;13.420;2023-02-24T16:52:43;67.73;;;37.63;;
11255;SDS011;5685;52.384;13.420;2023-02-24T16:55:46;67.50;;;37.47;;
11255;SDS011;5685;52.384;13.420;2023-02-24T16:58:49;67.77;;;37.67;;
11255;SDS011;5685;52.384;13.420;2023-02-24T17:01:51;67.63;;;37.50;;
11255;SDS011;5685;52.384;13.420;2023-02-24T17:04:54;67.87;;;37.60;;
11255;SDS011;5685;52.384;13.420;2023-02-24T17:07:58;67.50;;;37.43;;
11255;SDS011;5685;52.384;13.420;2023-02-24T17:11:01;67.70;;;37.50;;
11255;SDS011;5685;52.384;13.420;2023-02-24T17:14:04;67.53;;;37.40;;
11255;SDS011;5685;52.384;13.420;2023-02-24T17:17:07;67.27;;;37.33;;
11255;SDS011;5685;52.384;13.420;2023-02-24T17:20:11;68.50;;;37.87;;
11255;SDS011;5685;52.384;13.420;2023-02-24T17:23:16;67.93;;;37.73;;
11255;SDS011;5685;52.384;13.420;2023-02-24T17:26:18;67.67;;;37.60;;
11255;SDS011;5685;52.384;13.420;2023-02-24T17:29:21;67.30;;;37.40;;
11255;SDS011;5685;52.384;13.420;2023-02-24T17:32:24;67.27;;;37.30;;
11255;SDS011;5685;52.384;13.420;2023-02-24T17:35:27;67.67;;;37.63;;
11255;SDS011;5685;52.384;13.420;2023-02-24T17:38:31;67.70;;;37.60;;
11255;SDS011;5685;52.384;13.420;2023-02-24T17:41:34;67.87;;;37.70;;
11255;SDS011;5685;52.384;13.420;2023-02-24T17:44:37;68.57;;;38.00;;
11255;SDS011;5685;52.384;13.420;2023-02-24T17:47:40;68.03;;;37.60;;
11255;SDS011;5685;52.384;13.420;2023-02-24T17:50:43;68.40;;;37.90;;
11255;SDS011;5685;52.384;13.420;2023-02-24T17:53:48;67.70;;;37.43;;
11255;SDS011;5685;52.384;13.420;2023-02-24T17:56:50;68.23;;;37.70;;
11255;SDS011;5685;52.384;13.420;2023-02-24T17:59:53;68.17;;;37.73;;
11255;SDS011;5685;52.384;13.420;2023-02-24T18:02:55;68.13;;;37.50;;
11255;SDS011;5685;52.384;13.420;2023-02-24T18:05:59;67.90;;;37.50;;
11255;SDS011;5685;52.384;13.420;2023-02-24T18:09:03;68.27;;;37.70;;
11255;SDS011;5685;52.384;13.420;2023-02-24T18:12:06;67.90;;;37.43;;
11255;SDS011;5685;52.384;13.420;2023-02-24T18:15:09;67.87;;;37.40;;
11255;SDS011;5685;52.384;13.420;2023-02-24T18:18:12;68.20;;;37.60;;